This is the latest recevied weather packets stored in our database for station/object N1HQ. If no packets are shown the sender has not sent any weather packets the latest 10 day(s).
| Time | Temp. | Humidity | Pressure | Rain* | Wind** | Luminosity | Snow |
|---|---|---|---|---|---|---|---|
| 1788126216 | 29.44° C | 86% | 1014.1 hPa | 0 mm | - | - | - |
| 1788125936 | 29.44° C | 86% | 1014.2 hPa | 0 mm | - | - | - |
| 1788125678 | 29.44° C | 86% | 1014.2 hPa | 0 mm | - | - | - |
| 1788125396 | 29.44° C | 85% | 1014.2 hPa | 0 mm | - | - | - |
| 1788125128 | 29.44° C | 85% | 1014.3 hPa | 0 mm | - | - | - |
| 1788124876 | 28.89° C | 88% | 1014.3 hPa | 0 mm | - | - | - |
| 1788124634 | 28.89° C | 91% | 1014.5 hPa | 0 mm | - | - | - |
| 1788124378 | 28.33° C | 89% | 1014.6 hPa | 0 mm | - | - | - |
| 1788124108 | 28.33° C | 92% | 1014.5 hPa | 0 mm | - | - | - |
| 1788123823 | 28.33° C | 93% | 1014.6 hPa | 0 mm | - | - | - |
| 1788123526 | 28.33° C | 93% | 1014.5 hPa | 0 mm | - | - | - |
| 1788123256 | 27.78° C | 95% | 1014.3 hPa | 0 mm | - | - | - |
| 1788122993 | 27.78° C | 95% | 1014.1 hPa | 0 mm | - | - | - |
| 1788122694 | 27.22° C | 95% | 1014.1 hPa | 0 mm | - | - | - |
| 1788122408 | 26.67° C | 95% | 1014.2 hPa | 0 mm | - | - | - |
| 1788122123 | 26.11° C | 94% | 1014.3 hPa | 0 mm | - | - | - |
| 1788121863 | 26.11° C | 93% | 1014.3 hPa | 0 mm | - | - | - |
| 1788121583 | 26.67° C | 93% | 1014.4 hPa | 0 mm | - | - | - |
| 1788121327 | 27.22° C | 89% | 1014.7 hPa | 0 mm | - | - | - |
| 1788121048 | 28.89° C | 88% | 1014.9 hPa | 0 mm | - | - | - |
| 1788120768 | 31.67° C | 82% | 1014.2 hPa | 0 mm | - | - | - |
| 1788120518 | 32.22° C | 82% | 1014.2 hPa | 0 mm | - | - | - |
| 1788120228 | 31.67° C | 83% | 1014.1 hPa | 0 mm | - | - | - |
| 1788119943 | 31.67° C | 82% | 1014.3 hPa | 0 mm | - | - | - |
| 1788119693 | 31.67° C | 81% | 1014.3 hPa | 0 mm | - | - | - |
* Rain latest hour (hover to see other rain measurements)
** Current wind speed in m/s (hover to see current wind gust speed)